Tokuyo Maru No.15 — JD2184 — position and weather

sailwx.info

Track history (hours):
 
Tides and Currents Weather Stations Pressure Air Temp Water Temp Dewpoint Dewpoint Depression Visibility Wind Speed Wind Dir Waves Ship Positions

Tokuyo Maru No.15

Last reported at 2015-May-25 19:18 UTC. Time now 2015-May-25 19:40 UTC.
Position N 35°48' E 140°52'.

Length 66 m; draft 4.5 m.

Type: Tanker. MMSI: 431402034.

Date/timePositionNaut miles runAvg speedWind from/ knotsBaromVisibWave heightAir tempDewpointWater temp
2015-May-25 19:18N 35°48' E 140°52'2110.2
2015-May-25 17:16N 35°29' E 140°43'1212.6
2015-May-25 16:18N 35°19' E 140°34'2412.1
2015-May-25 14:19N 35°02' E 140°13'24 6.4
2015-May-25 10:32N 35°11' E 139°46'1111.6
2015-May-25 09:33N 35°22' E 139°42'1211.8
2015-May-25 08:33N 35°30' E 139°53'8 8.2
2015-May-25 07:33N 35°31' E 140°03'0 0.0
2015-May-25 06:33N 35°31' E 140°03'0 0.0
2015-May-25 05:33N 35°31' E 140°03'0 0.0
2015-May-25 04:33N 35°31' E 140°03'0 0.0
2015-May-25 03:33N 35°31' E 140°03'0 0.0
2015-May-25 02:33N 35°31' E 140°03'0 0.0
2015-May-25 01:33N 35°31' E 140°03'0 0.0
2015-May-25 00:33N 35°31' E 140°03'1 1.4
2015-May-24 23:33N 35°31' E 140°01'6 6.0
2015-May-24 22:32N 35°29' E 139°54'0 0.0
2015-May-24 21:32N 35°29' E 139°54'0 0.0
2015-May-24 20:29N 35°29' E 139°54'0 0.0
2015-May-24 19:32N 35°29' E 139°54'0 0.0
2015-May-24 18:31N 35°29' E 139°54'9 9.2
2015-May-24 17:33N 35°23' E 139°46'1110.6
2015-May-24 16:33N 35°12' E 139°47'1211.8
2015-May-24 15:32N 35°01' E 139°44'74 8.2
2015-May-24 06:26N 35°57' E 140°44'4 4.9
2015-May-24 05:33N 35°54' E 140°41'0 0.0
2015-May-24 04:21N 35°54' E 140°41'0 0.0
2015-May-24 03:21N 35°54' E 140°41'0 0.0
2015-May-24 02:31N 35°54' E 140°41'0 0.0
2015-May-24 01:31N 35°54' E 140°41'0 0.0
2015-May-24 00:32N 35°54' E 140°41'0 0.0
2015-May-23 23:33N 35°54' E 140°41'5 1.0
2015-May-23 18:30N 35°58' E 140°44'4310.4
2015-May-23 14:21N 35°16' E 140°31'2513.4
2015-May-23 12:31N 34°60' E 140°09'2010.3
2015-May-23 10:33N 34°58' E 139°44'1211.6
2015-May-23 09:32N 35°09' E 139°45'1010.5
2015-May-23 08:34N 35°19' E 139°43'1010.0
2015-May-23 07:34N 35°28' E 139°49'1111.0
2015-May-23 06:34N 35°31' E 140°02'1 0.6
2015-May-23 05:34N 35°31' E 140°03'0 0.0
2015-May-23 04:33N 35°31' E 140°03'0 0.0
2015-May-23 03:33N 35°31' E 140°03'0 0.0
2015-May-23 02:34N 35°31' E 140°03'0 0.0
2015-May-23 01:34N 35°31' E 140°03'0 0.0
2015-May-23 00:33N 35°31' E 140°03'0 0.0
2015-May-22 23:34N 35°31' E 140°03'0 0.0
2015-May-22 22:33N 35°31' E 140°03'6 6.2
2015-May-22 21:33N 35°29' E 139°55'0 0.4
2015-May-22 20:34N 35°29' E 139°55'0 0.0
2015-May-22 19:33N 35°29' E 139°55'0 0.0
2015-May-22 18:33N 35°29' E 139°55'0 0.0
2015-May-22 17:32N 35°29' E 139°55'0 0.0
2015-May-22 16:33N 35°29' E 139°55'0 0.0
2015-May-22 15:33N 35°29' E 139°55'0 0.0
2015-May-22 14:33N 35°29' E 139°55'0 0.0
2015-May-22 13:33N 35°29' E 139°55'0 0.0
2015-May-22 12:33N 35°29' E 139°55'0 0.0
2015-May-22 11:33N 35°29' E 139°55'0 0.0
2015-May-22 10:33N 35°29' E 139°55'0 0.0
2015-May-22 09:33N 35°29' E 139°55'0 0.0
2015-May-22 08:33N 35°29' E 139°55'0 0.0
2015-May-22 07:34N 35°29' E 139°55'0 0.0
2015-May-22 06:32N 35°29' E 139°55'0 0.0
2015-May-22 05:32N 35°29' E 139°55'0 0.0
2015-May-22 04:23N 35°29' E 139°55'0 0.0
2015-May-22 03:32N 35°29' E 139°55'0 0.0
2015-May-22 02:32N 35°29' E 139°55'0 0.0
2015-May-22 01:32N 35°29' E 139°55'0 0.0
2015-May-22 00:32N 35°29' E 139°55'0 0.0
2015-May-21 23:32N 35°29' E 139°55'0 0.0
2015-May-21 22:32N 35°29' E 139°55'0 0.0
2015-May-21 21:26N 35°29' E 139°55'0 0.0
2015-May-21 20:26N 35°29' E 139°55'0 0.0
2015-May-21 19:32N 35°29' E 139°55'0 0.0
2015-May-21 18:26N 35°29' E 139°55'0 0.0
2015-May-21 17:32N 35°29' E 139°55'0 0.1
2015-May-21 16:33N 35°29' E 139°55'9 9.4
2015-May-21 15:33N 35°23' E 139°46'1010.4
2015-May-21 14:33N 35°13' E 139°47'1211.5
2015-May-21 13:30N 35°03' E 139°38'1212.2
2015-May-21 12:33N 34°56' E 139°27'10 0.2
2015-May-19 13:31N 35°03' E 139°34'1111.7
2015-May-19 12:33N 35°11' E 139°45'1211.6
2015-May-19 11:33N 35°22' E 139°42'1211.7
2015-May-19 10:33N 35°30' E 139°53'8 8.0
2015-May-19 09:33N 35°31' E 140°03'0 0.0
2015-May-19 08:33N 35°31' E 140°03'0 0.0
2015-May-19 07:33N 35°31' E 140°03'0 0.0
2015-May-19 06:33N 35°31' E 140°03'0 0.0
2015-May-19 05:33N 35°31' E 140°03'0 0.0
2015-May-19 04:33N 35°31' E 140°03'0 0.0
2015-May-19 03:33N 35°31' E 140°03'0 0.0
2015-May-19 02:33N 35°31' E 140°03'0 0.0
2015-May-19 01:33N 35°31' E 140°03'0 0.0
2015-May-19 00:33N 35°31' E 140°03'0 0.0
2015-May-18 23:33N 35°31' E 140°03'0 0.0
2015-May-18 22:33N 35°31' E 140°03'6 5.8
2015-May-18 21:33N 35°29' E 139°56'0 0.2
2015-May-18 20:29N 35°29' E 139°56'0 0.0
2015-May-18 19:29N 35°29' E 139°56'0 0.0
2015-May-18 18:32N 35°29' E 139°56'0 0.1
2015-May-18 17:32N 35°29' E 139°56'0 0.0
2015-May-18 16:32N 35°29' E 139°56'0 0.0
2015-May-18 15:32N 35°29' E 139°56'0 0.0
2015-May-18 14:32N 35°29' E 139°56'0 0.0
2015-May-18 13:14N 35°29' E 139°56'0 0.0
2015-May-18 12:26N 35°29' E 139°56'0 0.0
2015-May-18 11:32N 35°29' E 139°56'0 0.0
2015-May-18 10:29N 35°29' E 139°56'0 0.0
2015-May-18 09:26N 35°29' E 139°56'0 0.1
2015-May-18 08:29N 35°29' E 139°56'0 0.0
2015-May-18 07:29N 35°29' E 139°56'0 0.0
2015-May-18 06:26N 35°29' E 139°56'0 0.0
2015-May-18 05:29N 35°29' E 139°56'2 2.0
2015-May-18 04:34N 35°29' E 139°53'1212.1
2015-May-18 03:33N 35°19' E 139°44'7 0.2
2015-May-16 13:33N 35°12' E 139°46'1111.5
2015-May-16 12:34N 35°23' E 139°42'1312.5
2015-May-16 11:34N 35°31' E 139°55'6 6.3
2015-May-16 10:34N 35°31' E 140°03'0 0.0
2015-May-16 09:34N 35°31' E 140°03'0 0.0
2015-May-16 08:33N 35°31' E 140°03'0 0.0
2015-May-16 07:34N 35°31' E 140°03'0 0.0
2015-May-16 06:33N 35°31' E 140°03'0 0.0
2015-May-16 05:33N 35°31' E 140°03'0 0.0
2015-May-16 04:33N 35°31' E 140°03'0 0.0
2015-May-16 03:33N 35°31' E 140°03'0 0.0
2015-May-16 02:33N 35°31' E 140°03'0 0.0
2015-May-16 01:33N 35°31' E 140°03'0 0.0
2015-May-16 00:33N 35°31' E 140°03'0 0.0
2015-May-15 23:33N 35°31' E 140°03'0 0.0
2015-May-15 22:34N 35°31' E 140°03'6 5.9
2015-May-15 21:33N 35°29' E 139°56'1 0.6
2015-May-15 20:28N 35°29' E 139°55'  
Track history (hours):
 
Tides and Currents Weather Stations Pressure Air Temp Water Temp Dewpoint Dewpoint Depression Visibility Wind Speed Wind Dir Waves Ship Positions

Tokuyo Maru No.15

Last reported at 2015-May-25 19:18 UTC. Time now 2015-May-25 19:40 UTC.
Position N 35°48' E 140°52'.

Length 66 m; draft 4.5 m.

Type: Tanker. MMSI: 431402034.

Date/timePositionNaut miles runAvg speedWind from/ knotsBaromVisibWave heightAir tempDewpointWater temp
2015-May-25 19:18N 35°48' E 140°52'2110.2
2015-May-25 17:16N 35°29' E 140°43'1212.6
2015-May-25 16:18N 35°19' E 140°34'2412.1
2015-May-25 14:19N 35°02' E 140°13'24 6.4
2015-May-25 10:32N 35°11' E 139°46'1111.6
2015-May-25 09:33N 35°22' E 139°42'1211.8
2015-May-25 08:33N 35°30' E 139°53'8 8.2
2015-May-25 07:33N 35°31' E 140°03'0 0.0
2015-May-25 06:33N 35°31' E 140°03'0 0.0
2015-May-25 05:33N 35°31' E 140°03'0 0.0
2015-May-25 04:33N 35°31' E 140°03'0 0.0
2015-May-25 03:33N 35°31' E 140°03'0 0.0
2015-May-25 02:33N 35°31' E 140°03'0 0.0
2015-May-25 01:33N 35°31' E 140°03'0 0.0
2015-May-25 00:33N 35°31' E 140°03'1 1.4
2015-May-24 23:33N 35°31' E 140°01'6 6.0
2015-May-24 22:32N 35°29' E 139°54'0 0.0
2015-May-24 21:32N 35°29' E 139°54'0 0.0
2015-May-24 20:29N 35°29' E 139°54'0 0.0
2015-May-24 19:32N 35°29' E 139°54'0 0.0
2015-May-24 18:31N 35°29' E 139°54'9 9.2
2015-May-24 17:33N 35°23' E 139°46'1110.6
2015-May-24 16:33N 35°12' E 139°47'1211.8
2015-May-24 15:32N 35°01' E 139°44'74 8.2
2015-May-24 06:26N 35°57' E 140°44'4 4.9
2015-May-24 05:33N 35°54' E 140°41'0 0.0
2015-May-24 04:21N 35°54' E 140°41'0 0.0
2015-May-24 03:21N 35°54' E 140°41'0 0.0
2015-May-24 02:31N 35°54' E 140°41'0 0.0
2015-May-24 01:31N 35°54' E 140°41'0 0.0
2015-May-24 00:32N 35°54' E 140°41'0 0.0
2015-May-23 23:33N 35°54' E 140°41'5 1.0
2015-May-23 18:30N 35°58' E 140°44'4310.4
2015-May-23 14:21N 35°16' E 140°31'2513.4
2015-May-23 12:31N 34°60' E 140°09'2010.3
2015-May-23 10:33N 34°58' E 139°44'1211.6
2015-May-23 09:32N 35°09' E 139°45'1010.5
2015-May-23 08:34N 35°19' E 139°43'1010.0
2015-May-23 07:34N 35°28' E 139°49'1111.0
2015-May-23 06:34N 35°31' E 140°02'1 0.6
2015-May-23 05:34N 35°31' E 140°03'0 0.0
2015-May-23 04:33N 35°31' E 140°03'0 0.0
2015-May-23 03:33N 35°31' E 140°03'0 0.0
2015-May-23 02:34N 35°31' E 140°03'0 0.0
2015-May-23 01:34N 35°31' E 140°03'0 0.0
2015-May-23 00:33N 35°31' E 140°03'0 0.0
2015-May-22 23:34N 35°31' E 140°03'0 0.0
2015-May-22 22:33N 35°31' E 140°03'6 6.2
2015-May-22 21:33N 35°29' E 139°55'0 0.4
2015-May-22 20:34N 35°29' E 139°55'0 0.0
2015-May-22 19:33N 35°29' E 139°55'0 0.0
2015-May-22 18:33N 35°29' E 139°55'0 0.0
2015-May-22 17:32N 35°29' E 139°55'0 0.0
2015-May-22 16:33N 35°29' E 139°55'0 0.0
2015-May-22 15:33N 35°29' E 139°55'0 0.0
2015-May-22 14:33N 35°29' E 139°55'0 0.0
2015-May-22 13:33N 35°29' E 139°55'0 0.0
2015-May-22 12:33N 35°29' E 139°55'0 0.0
2015-May-22 11:33N 35°29' E 139°55'0 0.0
2015-May-22 10:33N 35°29' E 139°55'0 0.0
2015-May-22 09:33N 35°29' E 139°55'0 0.0
2015-May-22 08:33N 35°29' E 139°55'0 0.0
2015-May-22 07:34N 35°29' E 139°55'0 0.0
2015-May-22 06:32N 35°29' E 139°55'0 0.0
2015-May-22 05:32N 35°29' E 139°55'0 0.0
2015-May-22 04:23N 35°29' E 139°55'0 0.0
2015-May-22 03:32N 35°29' E 139°55'0 0.0
2015-May-22 02:32N 35°29' E 139°55'0 0.0
2015-May-22 01:32N 35°29' E 139°55'0 0.0
2015-May-22 00:32N 35°29' E 139°55'0 0.0
2015-May-21 23:32N 35°29' E 139°55'0 0.0
2015-May-21 22:32N 35°29' E 139°55'0 0.0
2015-May-21 21:26N 35°29' E 139°55'0 0.0
2015-May-21 20:26N 35°29' E 139°55'0 0.0
2015-May-21 19:32N 35°29' E 139°55'0 0.0
2015-May-21 18:26N 35°29' E 139°55'0 0.0
2015-May-21 17:32N 35°29' E 139°55'0 0.1
2015-May-21 16:33N 35°29' E 139°55'9 9.4
2015-May-21 15:33N 35°23' E 139°46'1010.4
2015-May-21 14:33N 35°13' E 139°47'1211.5
2015-May-21 13:30N 35°03' E 139°38'1212.2
2015-May-21 12:33N 34°56' E 139°27'10 0.2
2015-May-19 13:31N 35°03' E 139°34'1111.7
2015-May-19 12:33N 35°11' E 139°45'1211.6
2015-May-19 11:33N 35°22' E 139°42'1211.7
2015-May-19 10:33N 35°30' E 139°53'8 8.0
2015-May-19 09:33N 35°31' E 140°03'0 0.0
2015-May-19 08:33N 35°31' E 140°03'0 0.0
2015-May-19 07:33N 35°31' E 140°03'0 0.0
2015-May-19 06:33N 35°31' E 140°03'0 0.0
2015-May-19 05:33N 35°31' E 140°03'0 0.0
2015-May-19 04:33N 35°31' E 140°03'0 0.0
2015-May-19 03:33N 35°31' E 140°03'0 0.0
2015-May-19 02:33N 35°31' E 140°03'0 0.0
2015-May-19 01:33N 35°31' E 140°03'0 0.0
2015-May-19 00:33N 35°31' E 140°03'0 0.0
2015-May-18 23:33N 35°31' E 140°03'0 0.0
2015-May-18 22:33N 35°31' E 140°03'6 5.8
2015-May-18 21:33N 35°29' E 139°56'0 0.2
2015-May-18 20:29N 35°29' E 139°56'0 0.0
2015-May-18 19:29N 35°29' E 139°56'0 0.0
2015-May-18 18:32N 35°29' E 139°56'0 0.1
2015-May-18 17:32N 35°29' E 139°56'0 0.0
2015-May-18 16:32N 35°29' E 139°56'0 0.0
2015-May-18 15:32N 35°29' E 139°56'0 0.0
2015-May-18 14:32N 35°29' E 139°56'0 0.0
2015-May-18 13:14N 35°29' E 139°56'0 0.0
2015-May-18 12:26N 35°29' E 139°56'0 0.0
2015-May-18 11:32N 35°29' E 139°56'0 0.0
2015-May-18 10:29N 35°29' E 139°56'0 0.0
2015-May-18 09:26N 35°29' E 139°56'0 0.1
2015-May-18 08:29N 35°29' E 139°56'0 0.0
2015-May-18 07:29N 35°29' E 139°56'0 0.0
2015-May-18 06:26N 35°29' E 139°56'0 0.0
2015-May-18 05:29N 35°29' E 139°56'2 2.0
2015-May-18 04:34N 35°29' E 139°53'1212.1
2015-May-18 03:33N 35°19' E 139°44'7 0.2
2015-May-16 13:33N 35°12' E 139°46'1111.5
2015-May-16 12:34N 35°23' E 139°42'1312.5
2015-May-16 11:34N 35°31' E 139°55'6 6.3
2015-May-16 10:34N 35°31' E 140°03'0 0.0
2015-May-16 09:34N 35°31' E 140°03'0 0.0
2015-May-16 08:33N 35°31' E 140°03'0 0.0
2015-May-16 07:34N 35°31' E 140°03'0 0.0
2015-May-16 06:33N 35°31' E 140°03'0 0.0
2015-May-16 05:33N 35°31' E 140°03'0 0.0
2015-May-16 04:33N 35°31' E 140°03'0 0.0
2015-May-16 03:33N 35°31' E 140°03'0 0.0
2015-May-16 02:33N 35°31' E 140°03'0 0.0
2015-May-16 01:33N 35°31' E 140°03'0 0.0
2015-May-16 00:33N 35°31' E 140°03'0 0.0
2015-May-15 23:33N 35°31' E 140°03'0 0.0
2015-May-15 22:34N 35°31' E 140°03'6 5.9
2015-May-15 21:33N 35°29' E 139°56'1 0.6
2015-May-15 20:28N 35°29' E 139°55'  

Dump ship's entire track history